createdAt,value
2023-08-10T00:07:31.475Z,98906.64
2023-08-10T00:17:38.301Z,98907.70
2023-08-10T00:27:45.449Z,98909.76
2023-08-10T00:37:52.431Z,98912.12
2023-08-10T00:47:58.954Z,98914.23
2023-08-10T00:58:05.404Z,98921.45
2023-08-10T01:08:14.432Z,98928.79
2023-08-10T01:18:28.768Z,98929.27
2023-08-10T01:28:36.674Z,98933.23
2023-08-10T01:38:43.728Z,98938.02
2023-08-10T01:48:54.466Z,98945.84
2023-08-10T01:59:01.940Z,98943.86
2023-08-10T02:09:09.979Z,98948.58
2023-08-10T02:19:16.095Z,98948.54
2023-08-10T02:29:23.472Z,98951.98
2023-08-10T02:39:29.508Z,98953.91
2023-08-10T02:49:36.404Z,98954.38
2023-08-10T02:59:43.575Z,98956.30
2023-08-10T03:09:51.438Z,98958.86
2023-08-10T03:19:58.650Z,98969.90
2023-08-10T03:30:07.419Z,98978.70
2023-08-10T03:40:12.584Z,98983.34
2023-08-10T03:50:19.330Z,98986.34
2023-08-10T04:00:26.326Z,98990.76
2023-08-10T04:10:33.098Z,99009.71
2023-08-10T04:20:40.760Z,99010.08
2023-08-10T04:30:46.631Z,99006.52
2023-08-10T04:40:54.452Z,99001.85
2023-08-10T04:51:00.926Z,99008.26
2023-08-10T05:01:08.029Z,99021.38
2023-08-10T05:11:13.745Z,99034.61
2023-08-10T05:21:20.889Z,99046.70
2023-08-10T05:31:28.495Z,99060.39
2023-08-10T05:41:35.823Z,99069.80
2023-08-10T05:51:43.236Z,99076.27
2023-08-10T06:01:50.475Z,99084.31
2023-08-10T06:11:57.270Z,99084.25
2023-08-10T06:22:03.518Z,99084.56
2023-08-10T06:32:11.628Z,99090.59
2023-08-10T06:42:18.167Z,99088.27
2023-08-10T06:52:24.493Z,99095.12
2023-08-10T07:02:31.536Z,99102.21
2023-08-10T07:12:38.507Z,99103.67
2023-08-10T07:22:47.628Z,99108.02
2023-08-10T07:32:55.288Z,99114.05
2023-08-10T07:43:01.051Z,99119.01
2023-08-10T07:53:04.769Z,99121.04
2023-08-10T08:03:12.316Z,99123.15
2023-08-10T08:13:21.147Z,99124.75
2023-08-10T08:23:26.158Z,99128.27
2023-08-10T08:33:34.237Z,99130.80
2023-08-10T08:43:41.331Z,99113.44
2023-08-10T08:53:47.859Z,99111.72
2023-08-10T09:03:55.841Z,99113.90
2023-08-10T09:14:11.903Z,99116.84
2023-08-10T09:24:19.197Z,99122.30
2023-08-10T09:34:28.308Z,99128.63
2023-08-10T09:44:43.599Z,99127.14
2023-08-10T09:54:48.874Z,99128.23
2023-08-10T10:04:54.905Z,99121.99
2023-08-10T10:15:02.691Z,99122.02
2023-08-10T10:25:14.589Z,99122.14
2023-08-10T10:35:22.506Z,99123.06
2023-08-10T10:45:30.151Z,99122.11
2023-08-10T10:55:40.927Z,99115.96
2023-08-10T11:05:47.263Z,99110.90
2023-08-10T11:15:54.543Z,99101.86
2023-08-10T11:26:01.464Z,99103.96
2023-08-10T11:36:07.463Z,99111.02
2023-08-10T11:46:13.533Z,99112.31
2023-08-10T11:56:20.234Z,99109.73
2023-08-10T12:06:28.112Z,99102.33
2023-08-10T12:16:35.605Z,99092.70
2023-08-10T12:26:43.621Z,99086.57
2023-08-10T12:36:50.602Z,99089.92
2023-08-10T12:46:58.848Z,99085.20
2023-08-10T12:57:05.557Z,99083.64
2023-08-10T13:07:12.704Z,99087.36
2023-08-10T13:17:18.798Z,99082.71
2023-08-10T13:27:26.827Z,99078.47
2023-08-10T13:37:36.104Z,99068.65
2023-08-10T13:47:44.170Z,99065.30
2023-08-10T13:57:51.345Z,99064.73
2023-08-10T14:07:58.633Z,99068.24
2023-08-10T14:18:05.973Z,99065.91
2023-08-10T14:28:13.091Z,99057.10
2023-08-10T14:38:20.073Z,99057.27
2023-08-10T14:48:28.908Z,99056.20
2023-08-10T14:58:35.959Z,99055.96
2023-08-10T15:08:43.079Z,99060.34
2023-08-10T15:18:50.107Z,99062.08
2023-08-10T15:28:57.548Z,99053.73
2023-08-10T15:39:04.943Z,99049.17
2023-08-10T15:49:12.310Z,99049.28
2023-08-10T15:59:18.325Z,99052.58
2023-08-10T16:09:25.947Z,99059.01
2023-08-10T16:19:34.627Z,99063.45
2023-08-10T16:29:41.856Z,99065.10
2023-08-10T16:39:46.992Z,99073.81
2023-08-10T16:49:55.085Z,99073.31
2023-08-10T17:00:03.090Z,99082.22
2023-08-10T17:10:11.788Z,99081.34
2023-08-10T17:20:18.838Z,99085.84
2023-08-10T17:30:26.094Z,99098.37
2023-08-10T17:40:32.584Z,99103.31
2023-08-10T17:50:39.661Z,99108.69
2023-08-10T18:00:45.361Z,99117.91
2023-08-10T18:10:51.938Z,99123.98
2023-08-10T18:21:02.726Z,99127.14
2023-08-10T18:31:09.503Z,99133.19
2023-08-10T18:41:16.769Z,99141.25
2023-08-10T18:51:21.786Z,99149.45
2023-08-10T19:01:29.886Z,99155.15
2023-08-10T19:11:37.060Z,99157.64
2023-08-10T19:21:44.018Z,99162.42
2023-08-10T19:31:51.109Z,99161.86
2023-08-10T19:41:56.751Z,99169.77
2023-08-10T19:52:04.449Z,99171.29
2023-08-10T20:02:10.588Z,99178.79
2023-08-10T20:12:18.036Z,99178.60
2023-08-10T20:22:26.323Z,99181.66
2023-08-10T20:32:34.560Z,99185.59
2023-08-10T20:42:41.775Z,99185.05
2023-08-10T20:52:49.807Z,99185.86
2023-08-10T21:02:57.339Z,99183.04
2023-08-10T21:13:04.980Z,99178.90
2023-08-10T21:23:13.220Z,99180.55
2023-08-10T21:33:22.081Z,99180.22
2023-08-10T21:43:28.288Z,99177.90
2023-08-10T21:53:36.184Z,99173.09
2023-08-10T22:03:48.176Z,99178.82
2023-08-10T22:13:55.309Z,99180.56
2023-08-10T22:24:03.381Z,99179.19
2023-08-10T22:34:10.967Z,99178.05
2023-08-10T22:44:17.979Z,99183.47
2023-08-10T22:54:26.363Z,99182.17
2023-08-10T23:04:33.304Z,99180.20
2023-08-10T23:14:40.508Z,99184.47
2023-08-10T23:24:48.169Z,99178.36
2023-08-10T23:34:54.933Z,99178.84
2023-08-10T23:45:01.847Z,99173.27
2023-08-10T23:55:09.306Z,99168.21
